<?xml version="1.0" encoding="UTF-8" standalone="no" ?>
<gpx xmlns="http://www.topografix.com/GPX/1/1" xmlns:xsi="http://www.w3.org/2001/XMLSchema-instance" xsi:schemaLocation="http://www.topografix.com/GPX/1/1 http://www.topografix.com/GPX/1/1/gpx.xsd" version="1.1" creator="VisuGPX - https://www.visugpx.com">
  <metadata>
    <name>Roc des Tours</name>
    <desc><![CDATA[But au couloir de la Gaudinière, complètement ravagé. Voie presque normale pour aller au sommet.]]></desc>
  </metadata>
  <trk>
    <name><![CDATA[2018-01-28-01]]></name>
    <trkseg>
      <trkpt lat="45.97541" lon="6.45908">
        <ele>1301.1</ele>
        <time>2018-01-28T10:12:15Z</time>
      </trkpt>
      <trkpt lat="45.9754" lon="6.45909">
        <ele>1301.1</ele>
        <time>2018-01-28T10:12:16Z</time>
      </trkpt>
      <trkpt lat="45.9758" lon="6.4594">
        <ele>1308.8</ele>
        <time>2018-01-28T10:14:10Z</time>
      </trkpt>
      <trkpt lat="45.97618" lon="6.45976">
        <ele>1311.8</ele>
        <time>2018-01-28T10:14:47Z</time>
      </trkpt>
      <trkpt lat="45.976" lon="6.45916">
        <ele>1316.4</ele>
        <time>2018-01-28T10:15:38Z</time>
      </trkpt>
      <trkpt lat="45.9758" lon="6.45856">
        <ele>1319.8</ele>
        <time>2018-01-28T10:16:13Z</time>
      </trkpt>
      <trkpt lat="45.9756" lon="6.45798">
        <ele>1320.5</ele>
        <time>2018-01-28T10:16:46Z</time>
      </trkpt>
      <trkpt lat="45.97539" lon="6.45741">
        <ele>1323.5</ele>
        <time>2018-01-28T10:17:21Z</time>
      </trkpt>
      <trkpt lat="45.97577" lon="6.45777">
        <ele>1330.6</ele>
        <time>2018-01-28T10:18:35Z</time>
      </trkpt>
      <trkpt lat="45.97614" lon="6.45814">
        <ele>1333</ele>
        <time>2018-01-28T10:19:09Z</time>
      </trkpt>
      <trkpt lat="45.97643" lon="6.45865">
        <ele>1335.9</ele>
        <time>2018-01-28T10:19:42Z</time>
      </trkpt>
      <trkpt lat="45.9768" lon="6.45904">
        <ele>1340</ele>
        <time>2018-01-28T10:20:17Z</time>
      </trkpt>
      <trkpt lat="45.97686" lon="6.4584">
        <ele>1349</ele>
        <time>2018-01-28T10:21:01Z</time>
      </trkpt>
      <trkpt lat="45.97674" lon="6.45778">
        <ele>1352.1</ele>
        <time>2018-01-28T10:21:37Z</time>
      </trkpt>
      <trkpt lat="45.97658" lon="6.45716">
        <ele>1357.7</ele>
        <time>2018-01-28T10:22:12Z</time>
      </trkpt>
      <trkpt lat="45.97647" lon="6.45653">
        <ele>1365.2</ele>
        <time>2018-01-28T10:22:48Z</time>
      </trkpt>
      <trkpt lat="45.97624" lon="6.45596">
        <ele>1366.9</ele>
        <time>2018-01-28T10:23:23Z</time>
      </trkpt>
      <trkpt lat="45.97618" lon="6.45532">
        <ele>1368.6</ele>
        <time>2018-01-28T10:33:44Z</time>
      </trkpt>
      <trkpt lat="45.97602" lon="6.45471">
        <ele>1376.9</ele>
        <time>2018-01-28T10:34:38Z</time>
      </trkpt>
      <trkpt lat="45.97592" lon="6.45407">
        <ele>1383</ele>
        <time>2018-01-28T10:41:25Z</time>
      </trkpt>
      <trkpt lat="45.97593" lon="6.45342">
        <ele>1393.4</ele>
        <time>2018-01-28T10:42:25Z</time>
      </trkpt>
      <trkpt lat="45.97586" lon="6.45278">
        <ele>1406.7</ele>
        <time>2018-01-28T10:43:18Z</time>
      </trkpt>
      <trkpt lat="45.9756" lon="6.45223">
        <ele>1414.5</ele>
        <time>2018-01-28T10:44:07Z</time>
      </trkpt>
      <trkpt lat="45.97545" lon="6.45162">
        <ele>1425.1</ele>
        <time>2018-01-28T10:44:57Z</time>
      </trkpt>
      <trkpt lat="45.97531" lon="6.451">
        <ele>1435.6</ele>
        <time>2018-01-28T10:45:57Z</time>
      </trkpt>
      <trkpt lat="45.97519" lon="6.45036">
        <ele>1449.4</ele>
        <time>2018-01-28T10:47:15Z</time>
      </trkpt>
      <trkpt lat="45.97519" lon="6.44971">
        <ele>1457.4</ele>
        <time>2018-01-28T10:48:10Z</time>
      </trkpt>
      <trkpt lat="45.97533" lon="6.44909">
        <ele>1471</ele>
        <time>2018-01-28T10:49:15Z</time>
      </trkpt>
      <trkpt lat="45.97518" lon="6.44848">
        <ele>1484.4</ele>
        <time>2018-01-28T10:50:09Z</time>
      </trkpt>
      <trkpt lat="45.97525" lon="6.44784">
        <ele>1493.3</ele>
        <time>2018-01-28T10:51:08Z</time>
      </trkpt>
      <trkpt lat="45.97538" lon="6.44721">
        <ele>1494.2</ele>
        <time>2018-01-28T10:54:17Z</time>
      </trkpt>
      <trkpt lat="45.97531" lon="6.44656">
        <ele>1501.4</ele>
        <time>2018-01-28T10:55:07Z</time>
      </trkpt>
      <trkpt lat="45.97515" lon="6.44595">
        <ele>1511.4</ele>
        <time>2018-01-28T10:56:01Z</time>
      </trkpt>
      <trkpt lat="45.97496" lon="6.44535">
        <ele>1517.9</ele>
        <time>2018-01-28T10:56:55Z</time>
      </trkpt>
      <trkpt lat="45.9751" lon="6.44472">
        <ele>1518.7</ele>
        <time>2018-01-28T10:57:32Z</time>
      </trkpt>
      <trkpt lat="45.97485" lon="6.44418">
        <ele>1522.3</ele>
        <time>2018-01-28T10:58:17Z</time>
      </trkpt>
      <trkpt lat="45.97448" lon="6.4438">
        <ele>1527.8</ele>
        <time>2018-01-28T10:59:25Z</time>
      </trkpt>
      <trkpt lat="45.97435" lon="6.44317">
        <ele>1537.5</ele>
        <time>2018-01-28T11:00:27Z</time>
      </trkpt>
      <trkpt lat="45.97419" lon="6.44256">
        <ele>1550.3</ele>
        <time>2018-01-28T11:02:44Z</time>
      </trkpt>
      <trkpt lat="45.97431" lon="6.44194">
        <ele>1559.4</ele>
        <time>2018-01-28T11:04:15Z</time>
      </trkpt>
      <trkpt lat="45.97407" lon="6.44138">
        <ele>1565.8</ele>
        <time>2018-01-28T11:05:29Z</time>
      </trkpt>
      <trkpt lat="45.97393" lon="6.44076">
        <ele>1567.1</ele>
        <time>2018-01-28T11:06:33Z</time>
      </trkpt>
      <trkpt lat="45.97369" lon="6.44019">
        <ele>1564.2</ele>
        <time>2018-01-28T11:07:04Z</time>
      </trkpt>
      <trkpt lat="45.97338" lon="6.43972">
        <ele>1565.6</ele>
        <time>2018-01-28T11:07:49Z</time>
      </trkpt>
      <trkpt lat="45.97356" lon="6.43912">
        <ele>1579.9</ele>
        <time>2018-01-28T11:12:08Z</time>
      </trkpt>
      <trkpt lat="45.97386" lon="6.43863">
        <ele>1589.7</ele>
        <time>2018-01-28T11:13:10Z</time>
      </trkpt>
      <trkpt lat="45.97413" lon="6.43811">
        <ele>1610.3</ele>
        <time>2018-01-28T11:14:37Z</time>
      </trkpt>
      <trkpt lat="45.97423" lon="6.43747">
        <ele>1623.9</ele>
        <time>2018-01-28T11:15:48Z</time>
      </trkpt>
      <trkpt lat="45.97441" lon="6.43688">
        <ele>1637.9</ele>
        <time>2018-01-28T11:17:04Z</time>
      </trkpt>
      <trkpt lat="45.97445" lon="6.43623">
        <ele>1653.7</ele>
        <time>2018-01-28T11:19:22Z</time>
      </trkpt>
      <trkpt lat="45.97427" lon="6.43563">
        <ele>1658.1</ele>
        <time>2018-01-28T11:20:24Z</time>
      </trkpt>
      <trkpt lat="45.97386" lon="6.43534">
        <ele>1661.1</ele>
        <time>2018-01-28T11:21:24Z</time>
      </trkpt>
      <trkpt lat="45.97341" lon="6.43532">
        <ele>1674.5</ele>
        <time>2018-01-28T11:22:58Z</time>
      </trkpt>
      <trkpt lat="45.97301" lon="6.43503">
        <ele>1684.1</ele>
        <time>2018-01-28T11:24:19Z</time>
      </trkpt>
      <trkpt lat="45.9726" lon="6.43472">
        <ele>1694.3</ele>
        <time>2018-01-28T11:25:35Z</time>
      </trkpt>
      <trkpt lat="45.97229" lon="6.43425">
        <ele>1698.4</ele>
        <time>2018-01-28T11:26:43Z</time>
      </trkpt>
      <trkpt lat="45.97203" lon="6.43372">
        <ele>1710.9</ele>
        <time>2018-01-28T11:29:31Z</time>
      </trkpt>
      <trkpt lat="45.97218" lon="6.43311">
        <ele>1744.4</ele>
        <time>2018-01-28T11:37:04Z</time>
      </trkpt>
      <trkpt lat="45.97186" lon="6.43356">
        <ele>1717.7</ele>
        <time>2018-01-28T11:47:22Z</time>
      </trkpt>
      <trkpt lat="45.97216" lon="6.43409">
        <ele>1702.6</ele>
        <time>2018-01-28T11:47:41Z</time>
      </trkpt>
      <trkpt lat="45.97252" lon="6.43455">
        <ele>1692.4</ele>
        <time>2018-01-28T11:47:54Z</time>
      </trkpt>
      <trkpt lat="45.97282" lon="6.43504">
        <ele>1684.8</ele>
        <time>2018-01-28T11:48:31Z</time>
      </trkpt>
      <trkpt lat="45.9733" lon="6.43503">
        <ele>1678.8</ele>
        <time>2018-01-28T11:49:06Z</time>
      </trkpt>
      <trkpt lat="45.97371" lon="6.43534">
        <ele>1666.6</ele>
        <time>2018-01-28T11:49:39Z</time>
      </trkpt>
      <trkpt lat="45.97416" lon="6.43548">
        <ele>1658.7</ele>
        <time>2018-01-28T11:49:54Z</time>
      </trkpt>
      <trkpt lat="45.97443" lon="6.43603">
        <ele>1654.8</ele>
        <time>2018-01-28T11:50:14Z</time>
      </trkpt>
      <trkpt lat="45.97465" lon="6.43661">
        <ele>1642.4</ele>
        <time>2018-01-28T11:50:39Z</time>
      </trkpt>
      <trkpt lat="45.97493" lon="6.43712">
        <ele>1650.3</ele>
        <time>2018-01-28T11:56:03Z</time>
      </trkpt>
      <trkpt lat="45.97525" lon="6.43758">
        <ele>1655.5</ele>
        <time>2018-01-28T11:56:54Z</time>
      </trkpt>
      <trkpt lat="45.97568" lon="6.43775">
        <ele>1663.7</ele>
        <time>2018-01-28T11:58:17Z</time>
      </trkpt>
      <trkpt lat="45.97613" lon="6.43761">
        <ele>1667.6</ele>
        <time>2018-01-28T11:59:16Z</time>
      </trkpt>
      <trkpt lat="45.97658" lon="6.43756">
        <ele>1671</ele>
        <time>2018-01-28T12:00:21Z</time>
      </trkpt>
      <trkpt lat="45.97698" lon="6.43786">
        <ele>1682</ele>
        <time>2018-01-28T12:02:03Z</time>
      </trkpt>
      <trkpt lat="45.97742" lon="6.43769">
        <ele>1718.5</ele>
        <time>2018-01-28T12:09:37Z</time>
      </trkpt>
      <trkpt lat="45.97782" lon="6.43739">
        <ele>1735.2</ele>
        <time>2018-01-28T12:13:21Z</time>
      </trkpt>
      <trkpt lat="45.97795" lon="6.43677">
        <ele>1749</ele>
        <time>2018-01-28T12:15:26Z</time>
      </trkpt>
      <trkpt lat="45.97797" lon="6.43611">
        <ele>1770.4</ele>
        <time>2018-01-28T12:18:05Z</time>
      </trkpt>
      <trkpt lat="45.97816" lon="6.43552">
        <ele>1778.8</ele>
        <time>2018-01-28T12:20:07Z</time>
      </trkpt>
      <trkpt lat="45.97777" lon="6.4352">
        <ele>1801.7</ele>
        <time>2018-01-28T12:21:44Z</time>
      </trkpt>
      <trkpt lat="45.97763" lon="6.43457">
        <ele>1812.8</ele>
        <time>2018-01-28T12:26:54Z</time>
      </trkpt>
      <trkpt lat="45.97747" lon="6.43396">
        <ele>1824.4</ele>
        <time>2018-01-28T12:28:21Z</time>
      </trkpt>
      <trkpt lat="45.9771" lon="6.43358">
        <ele>1830.3</ele>
        <time>2018-01-28T12:29:26Z</time>
      </trkpt>
      <trkpt lat="45.97705" lon="6.43294">
        <ele>1849.2</ele>
        <time>2018-01-28T12:31:21Z</time>
      </trkpt>
      <trkpt lat="45.97668" lon="6.43256">
        <ele>1853</ele>
        <time>2018-01-28T12:32:18Z</time>
      </trkpt>
      <trkpt lat="45.9767" lon="6.43191">
        <ele>1862</ele>
        <time>2018-01-28T12:34:16Z</time>
      </trkpt>
      <trkpt lat="45.97659" lon="6.43128">
        <ele>1878</ele>
        <time>2018-01-28T12:35:45Z</time>
      </trkpt>
      <trkpt lat="45.97668" lon="6.43064">
        <ele>1886.4</ele>
        <time>2018-01-28T12:37:08Z</time>
      </trkpt>
      <trkpt lat="45.9763" lon="6.43029">
        <ele>1894.9</ele>
        <time>2018-01-28T12:38:21Z</time>
      </trkpt>
      <trkpt lat="45.97585" lon="6.43015">
        <ele>1902.3</ele>
        <time>2018-01-28T12:39:39Z</time>
      </trkpt>
      <trkpt lat="45.97562" lon="6.42958">
        <ele>1911.4</ele>
        <time>2018-01-28T12:41:42Z</time>
      </trkpt>
      <trkpt lat="45.97575" lon="6.42896">
        <ele>1921.9</ele>
        <time>2018-01-28T12:42:54Z</time>
      </trkpt>
      <trkpt lat="45.97542" lon="6.42852">
        <ele>1929.3</ele>
        <time>2018-01-28T12:43:47Z</time>
      </trkpt>
      <trkpt lat="45.97506" lon="6.42813">
        <ele>1942.5</ele>
        <time>2018-01-28T12:45:41Z</time>
      </trkpt>
      <trkpt lat="45.97461" lon="6.428">
        <ele>1950.3</ele>
        <time>2018-01-28T12:46:38Z</time>
      </trkpt>
      <trkpt lat="45.97428" lon="6.42757">
        <ele>1969.5</ele>
        <time>2018-01-28T12:48:33Z</time>
      </trkpt>
      <trkpt lat="45.97399" lon="6.42706">
        <ele>1992.8</ele>
        <time>2018-01-28T12:51:29Z</time>
      </trkpt>
      <trkpt lat="45.97445" lon="6.42721">
        <ele>1975.5</ele>
        <time>2018-01-28T13:05:39Z</time>
      </trkpt>
      <trkpt lat="45.97475" lon="6.42772">
        <ele>1957.1</ele>
        <time>2018-01-28T13:05:51Z</time>
      </trkpt>
      <trkpt lat="45.97467" lon="6.42839">
        <ele>1940.5</ele>
        <time>2018-01-28T13:06:08Z</time>
      </trkpt>
      <trkpt lat="45.97492" lon="6.42902">
        <ele>1918.1</ele>
        <time>2018-01-28T13:06:19Z</time>
      </trkpt>
      <trkpt lat="45.97526" lon="6.42947">
        <ele>1907.5</ele>
        <time>2018-01-28T13:06:29Z</time>
      </trkpt>
      <trkpt lat="45.97519" lon="6.43015">
        <ele>1895.7</ele>
        <time>2018-01-28T13:06:38Z</time>
      </trkpt>
      <trkpt lat="45.9756" lon="6.43045">
        <ele>1896.8</ele>
        <time>2018-01-28T13:06:56Z</time>
      </trkpt>
      <trkpt lat="45.97605" lon="6.43034">
        <ele>1896.9</ele>
        <time>2018-01-28T13:07:45Z</time>
      </trkpt>
      <trkpt lat="45.97651" lon="6.43029">
        <ele>1892.7</ele>
        <time>2018-01-28T13:08:01Z</time>
      </trkpt>
      <trkpt lat="45.97678" lon="6.43082">
        <ele>1887.9</ele>
        <time>2018-01-28T13:08:13Z</time>
      </trkpt>
      <trkpt lat="45.97711" lon="6.43129">
        <ele>1886</ele>
        <time>2018-01-28T13:08:28Z</time>
      </trkpt>
      <trkpt lat="45.97744" lon="6.43179">
        <ele>1879.3</ele>
        <time>2018-01-28T13:08:43Z</time>
      </trkpt>
      <trkpt lat="45.97772" lon="6.43235">
        <ele>1870.6</ele>
        <time>2018-01-28T13:09:12Z</time>
      </trkpt>
      <trkpt lat="45.97792" lon="6.43297">
        <ele>1852</ele>
        <time>2018-01-28T13:09:38Z</time>
      </trkpt>
      <trkpt lat="45.9782" lon="6.4335">
        <ele>1844.4</ele>
        <time>2018-01-28T13:09:57Z</time>
      </trkpt>
      <trkpt lat="45.97805" lon="6.43411">
        <ele>1833.2</ele>
        <time>2018-01-28T13:10:30Z</time>
      </trkpt>
      <trkpt lat="45.97797" lon="6.43479">
        <ele>1809.4</ele>
        <time>2018-01-28T13:10:56Z</time>
      </trkpt>
      <trkpt lat="45.97796" lon="6.43545">
        <ele>1790.9</ele>
        <time>2018-01-28T13:11:11Z</time>
      </trkpt>
      <trkpt lat="45.97833" lon="6.43586">
        <ele>1777.2</ele>
        <time>2018-01-28T13:11:38Z</time>
      </trkpt>
      <trkpt lat="45.97857" lon="6.43648">
        <ele>1770.3</ele>
        <time>2018-01-28T13:11:49Z</time>
      </trkpt>
      <trkpt lat="45.97895" lon="6.43691">
        <ele>1765.6</ele>
        <time>2018-01-28T13:12:00Z</time>
      </trkpt>
      <trkpt lat="45.97922" lon="6.43743">
        <ele>1761.7</ele>
        <time>2018-01-28T13:12:13Z</time>
      </trkpt>
      <trkpt lat="45.97945" lon="6.43801">
        <ele>1754</ele>
        <time>2018-01-28T13:12:25Z</time>
      </trkpt>
      <trkpt lat="45.97971" lon="6.43854">
        <ele>1748.3</ele>
        <time>2018-01-28T13:12:38Z</time>
      </trkpt>
      <trkpt lat="45.97992" lon="6.43912">
        <ele>1733.3</ele>
        <time>2018-01-28T13:12:58Z</time>
      </trkpt>
      <trkpt lat="45.97993" lon="6.43979">
        <ele>1714.7</ele>
        <time>2018-01-28T13:13:31Z</time>
      </trkpt>
      <trkpt lat="45.98006" lon="6.44045">
        <ele>1689.3</ele>
        <time>2018-01-28T13:13:47Z</time>
      </trkpt>
      <trkpt lat="45.98035" lon="6.44098">
        <ele>1671.4</ele>
        <time>2018-01-28T13:14:21Z</time>
      </trkpt>
      <trkpt lat="45.98021" lon="6.4416">
        <ele>1654.8</ele>
        <time>2018-01-28T13:14:41Z</time>
      </trkpt>
      <trkpt lat="45.98049" lon="6.44213">
        <ele>1640</ele>
        <time>2018-01-28T13:14:54Z</time>
      </trkpt>
      <trkpt lat="45.98084" lon="6.44255">
        <ele>1631.6</ele>
        <time>2018-01-28T13:15:06Z</time>
      </trkpt>
      <trkpt lat="45.98088" lon="6.44322">
        <ele>1620.5</ele>
        <time>2018-01-28T13:15:37Z</time>
      </trkpt>
      <trkpt lat="45.98069" lon="6.44382">
        <ele>1605.8</ele>
        <time>2018-01-28T13:15:50Z</time>
      </trkpt>
      <trkpt lat="45.98032" lon="6.44422">
        <ele>1598.4</ele>
        <time>2018-01-28T13:16:06Z</time>
      </trkpt>
      <trkpt lat="45.98007" lon="6.44476">
        <ele>1580.9</ele>
        <time>2018-01-28T13:16:32Z</time>
      </trkpt>
      <trkpt lat="45.98" lon="6.44546">
        <ele>1568.3</ele>
        <time>2018-01-28T13:16:53Z</time>
      </trkpt>
      <trkpt lat="45.97993" lon="6.44613">
        <ele>1562.1</ele>
        <time>2018-01-28T13:17:06Z</time>
      </trkpt>
      <trkpt lat="45.97991" lon="6.44679">
        <ele>1557.5</ele>
        <time>2018-01-28T13:17:16Z</time>
      </trkpt>
      <trkpt lat="45.97958" lon="6.44724">
        <ele>1558.7</ele>
        <time>2018-01-28T13:17:29Z</time>
      </trkpt>
      <trkpt lat="45.97923" lon="6.44771">
        <ele>1546.4</ele>
        <time>2018-01-28T13:17:43Z</time>
      </trkpt>
      <trkpt lat="45.97922" lon="6.44839">
        <ele>1533</ele>
        <time>2018-01-28T13:18:48Z</time>
      </trkpt>
      <trkpt lat="45.97898" lon="6.44895">
        <ele>1520.3</ele>
        <time>2018-01-28T13:19:03Z</time>
      </trkpt>
      <trkpt lat="45.97872" lon="6.44955">
        <ele>1519.5</ele>
        <time>2018-01-28T13:19:14Z</time>
      </trkpt>
      <trkpt lat="45.97852" lon="6.45016">
        <ele>1514.1</ele>
        <time>2018-01-28T13:19:24Z</time>
      </trkpt>
      <trkpt lat="45.97843" lon="6.45082">
        <ele>1505.4</ele>
        <time>2018-01-28T13:19:34Z</time>
      </trkpt>
      <trkpt lat="45.97824" lon="6.45145">
        <ele>1494.1</ele>
        <time>2018-01-28T13:19:45Z</time>
      </trkpt>
      <trkpt lat="45.97788" lon="6.45187">
        <ele>1483.4</ele>
        <time>2018-01-28T13:19:54Z</time>
      </trkpt>
      <trkpt lat="45.97743" lon="6.45169">
        <ele>1473.9</ele>
        <time>2018-01-28T13:20:26Z</time>
      </trkpt>
      <trkpt lat="45.97695" lon="6.45161">
        <ele>1468.4</ele>
        <time>2018-01-28T13:20:40Z</time>
      </trkpt>
      <trkpt lat="45.97674" lon="6.4522">
        <ele>1454.9</ele>
        <time>2018-01-28T13:20:58Z</time>
      </trkpt>
      <trkpt lat="45.97689" lon="6.45281">
        <ele>1447.3</ele>
        <time>2018-01-28T13:21:12Z</time>
      </trkpt>
      <trkpt lat="45.97706" lon="6.45346">
        <ele>1437.7</ele>
        <time>2018-01-28T13:21:29Z</time>
      </trkpt>
      <trkpt lat="45.97672" lon="6.45393">
        <ele>1419.8</ele>
        <time>2018-01-28T13:21:49Z</time>
      </trkpt>
      <trkpt lat="45.97653" lon="6.45455">
        <ele>1399</ele>
        <time>2018-01-28T13:22:14Z</time>
      </trkpt>
      <trkpt lat="45.97617" lon="6.45496">
        <ele>1375.5</ele>
        <time>2018-01-28T13:23:14Z</time>
      </trkpt>
      <trkpt lat="45.97617" lon="6.45561">
        <ele>1370.9</ele>
        <time>2018-01-28T13:32:35Z</time>
      </trkpt>
      <trkpt lat="45.97636" lon="6.45621">
        <ele>1370</ele>
        <time>2018-01-28T13:33:12Z</time>
      </trkpt>
      <trkpt lat="45.97651" lon="6.45683">
        <ele>1364.6</ele>
        <time>2018-01-28T13:33:43Z</time>
      </trkpt>
      <trkpt lat="45.97664" lon="6.45746">
        <ele>1361.7</ele>
        <time>2018-01-28T13:34:14Z</time>
      </trkpt>
      <trkpt lat="45.9768" lon="6.45808">
        <ele>1356.1</ele>
        <time>2018-01-28T13:34:47Z</time>
      </trkpt>
      <trkpt lat="45.9769" lon="6.45873">
        <ele>1350</ele>
        <time>2018-01-28T13:35:20Z</time>
      </trkpt>
      <trkpt lat="45.97644" lon="6.45868">
        <ele>1339.1</ele>
        <time>2018-01-28T13:36:14Z</time>
      </trkpt>
      <trkpt lat="45.97613" lon="6.45818">
        <ele>1332.4</ele>
        <time>2018-01-28T13:36:48Z</time>
      </trkpt>
      <trkpt lat="45.97578" lon="6.45777">
        <ele>1335.1</ele>
        <time>2018-01-28T13:37:20Z</time>
      </trkpt>
      <trkpt lat="45.97558" lon="6.45718">
        <ele>1330.4</ele>
        <time>2018-01-28T13:37:55Z</time>
      </trkpt>
      <trkpt lat="45.97554" lon="6.45783">
        <ele>1327.9</ele>
        <time>2018-01-28T13:38:51Z</time>
      </trkpt>
      <trkpt lat="45.97573" lon="6.45843">
        <ele>1324.9</ele>
        <time>2018-01-28T13:39:23Z</time>
      </trkpt>
      <trkpt lat="45.97603" lon="6.45891">
        <ele>1329.9</ele>
        <time>2018-01-28T13:40:53Z</time>
      </trkpt>
      <trkpt lat="45.9762" lon="6.45952">
        <ele>1320.9</ele>
        <time>2018-01-28T13:42:48Z</time>
      </trkpt>
      <trkpt lat="45.97577" lon="6.45928">
        <ele>1309.5</ele>
        <time>2018-01-28T13:43:38Z</time>
      </trkpt>
      <trkpt lat="45.97543" lon="6.45885">
        <ele>1303</ele>
        <time>2018-01-28T13:44:07Z</time>
      </trkpt>
      <trkpt lat="45.97508" lon="6.45835">
        <ele>1304.9</ele>
        <time>2018-01-28T13:44:40Z</time>
      </trkpt>
      <trkpt lat="45.97486" lon="6.45778">
        <ele>1302.9</ele>
        <time>2018-01-28T13:45:09Z</time>
      </trkpt>
      <trkpt lat="45.97459" lon="6.45726">
        <ele>1300.2</ele>
        <time>2018-01-28T13:45:38Z</time>
      </trkpt>
      <trkpt lat="45.97438" lon="6.45668">
        <ele>1296.8</ele>
        <time>2018-01-28T13:46:07Z</time>
      </trkpt>
      <trkpt lat="45.97419" lon="6.45608">
        <ele>1293.9</ele>
        <time>2018-01-28T13:46:38Z</time>
      </trkpt>
      <trkpt lat="45.97401" lon="6.45549">
        <ele>1291.5</ele>
        <time>2018-01-28T13:47:08Z</time>
      </trkpt>
      <trkpt lat="45.97386" lon="6.45485">
        <ele>1288.9</ele>
        <time>2018-01-28T13:47:27Z</time>
      </trkpt>
      <trkpt lat="45.97379" lon="6.4542">
        <ele>1287.1</ele>
        <time>2018-01-28T13:47:46Z</time>
      </trkpt>
      <trkpt lat="45.97379" lon="6.45412">
        <ele>1289.7</ele>
        <time>2018-01-28T13:48:42Z</time>
      </trkpt>
    </trkseg>
  </trk>
</gpx>